Time;durP1;ratioP1;P1;durP2;ratioP2;P2;SDS_P1;SDS_P2;PMS_P1;PMS_P2;Temp;Humidity;BMP_temperature;BMP_pressure;BME280_temperature;BME280_humidity;BME280_pressure;Samples;Min_cycle;Max_cycle;Signal;HPM_P1;HPM_P2
2021/05/31 00:00:09;;;;;;;20.35;11.55;;;8.70;99.90;;;;;;5044706;28;20570;-73
2021/05/31 00:02:36;;;;;;;18.42;11.68;;;8.70;99.90;;;;;;5043592;28;20056;-73
2021/05/31 00:05:03;;;;;;;14.60;12.50;;;8.80;99.90;;;;;;5027799;28;20384;-73
2021/05/31 00:07:30;;;;;;;14.73;11.68;;;8.70;99.90;;;;;;5026872;28;20045;-73
2021/05/31 00:09:57;;;;;;;19.13;12.38;;;8.60;99.90;;;;;;5027813;28;20041;-73
2021/05/31 00:12:24;;;;;;;17.67;11.20;;;8.70;99.90;;;;;;5044594;28;20053;-73
2021/05/31 00:14:51;;;;;;;16.73;11.27;;;8.70;99.90;;;;;;5055093;28;20152;-73
2021/05/31 00:17:18;;;;;;;19.73;12.85;;;8.80;99.90;;;;;;5064919;28;20515;-73
2021/05/31 00:19:46;;;;;;;19.20;12.63;;;8.80;99.90;;;;;;5028621;28;20079;-73
2021/05/31 00:22:12;;;;;;;17.55;13.05;;;8.80;99.90;;;;;;5040974;28;20144;-74
2021/05/31 00:24:39;;;;;;;20.67;12.45;;;8.80;99.90;;;;;;5041334;28;20102;-73
2021/05/31 00:27:06;;;;;;;18.20;12.35;;;8.80;99.90;;;;;;5041076;28;20049;-73
2021/05/31 00:29:33;;;;;;;17.33;12.88;;;8.80;99.90;;;;;;5043402;28;20072;-73
2021/05/31 00:32:00;;;;;;;24.88;14.70;;;8.90;99.90;;;;;;5026979;28;20159;-73
2021/05/31 00:34:27;;;;;;;25.55;13.80;;;9.00;99.90;;;;;;5009504;28;20049;-74
2021/05/31 00:36:54;;;;;;;30.40;15.60;;;9.40;99.90;;;;;;5042837;28;20060;-74
2021/05/31 00:39:21;;;;;;;25.83;15.40;;;9.50;99.90;;;;;;5042067;28;20198;-73
2021/05/31 00:41:50;;;;;;;23.55;15.13;;;9.60;99.90;;;;;;5030385;28;20077;-73
2021/05/31 00:44:18;;;;;;;26.75;15.65;;;9.70;99.90;;;;;;5055276;28;20570;-73
2021/05/31 00:46:46;;;;;;;25.27;15.23;;;9.60;99.90;;;;;;5007890;28;20195;-74
2021/05/31 00:49:20;;;;;;;25.38;14.68;;;9.50;99.90;;;;;;5024600;28;20262;-73
2021/05/31 00:51:47;;;;;;;27.55;15.65;;;9.50;99.90;;;;;;5024382;28;20180;-73
2021/05/31 00:54:13;;;;;;;23.70;15.82;;;9.60;99.90;;;;;;5008208;28;20056;-74
2021/05/31 00:56:42;;;;;;;26.63;15.30;;;9.60;99.90;;;;;;5023058;28;20079;-74
2021/05/31 00:59:09;;;;;;;24.98;15.90;;;9.60;99.90;;;;;;5009858;28;20490;-74
2021/05/31 01:01:36;;;;;;;30.67;16.95;;;9.50;99.90;;;;;;5022828;28;20041;-73
2021/05/31 01:04:03;;;;;;;26.13;16.33;;;9.60;99.90;;;;;;5039489;28;20052;-73
2021/05/31 01:06:34;;;;;;;29.98;16.52;;;9.60;99.90;;;;;;5042168;28;20460;-74
2021/05/31 01:09:12;;;;;;;30.05;17.73;;;9.70;99.90;;;;;;5042129;28;20057;-73
2021/05/31 01:11:57;;;;;;;29.55;15.93;;;9.80;99.90;;;;;;5042434;28;20052;-74
2021/05/31 01:14:36;;;;;;;34.35;16.23;;;9.90;99.90;;;;;;5050392;28;20077;-74
2021/05/31 01:17:12;;;;;;;22.27;15.40;;;10.10;99.90;;;;;;5040114;28;20040;-73
2021/05/31 01:19:51;;;;;;;24.55;16.00;;;10.30;99.90;;;;;;5017256;28;20429;-74
2021/05/31 01:22:26;;;;;;;32.42;16.67;;;10.30;99.90;;;;;;5041896;28;20057;-73
2021/05/31 01:25:21;;;;;;;25.65;16.92;;;10.20;99.90;;;;;;5005954;28;20052;-74
2021/05/31 01:28:00;;;;;;;28.38;16.08;;;10.10;99.90;;;;;;5023130;28;20103;-74
2021/05/31 01:30:27;;;;;;;28.63;18.13;;;9.90;99.90;;;;;;5023844;28;20531;-73
2021/05/31 01:32:55;;;;;;;21.75;14.93;;;9.80;99.90;;;;;;5004095;28;20084;-73
2021/05/31 01:35:33;;;;;;;31.60;15.93;;;9.70;99.90;;;;;;5036978;28;24908;-73
2021/05/31 01:38:02;;;;;;;24.55;15.27;;;9.50;99.90;;;;;;5033608;28;20057;-73
2021/05/31 01:40:31;;;;;;;26.20;15.23;;;9.40;99.90;;;;;;5053445;28;20322;-73
2021/05/31 01:43:00;;;;;;;26.85;15.05;;;9.30;99.90;;;;;;5036623;28;20090;-73
2021/05/31 01:45:28;;;;;;;24.13;14.95;;;9.20;99.90;;;;;;5040226;28;20041;-74
2021/05/31 01:47:55;;;;;;;22.98;15.68;;;9.20;99.90;;;;;;5025766;28;20045;-74
2021/05/31 01:50:22;;;;;;;24.60;15.25;;;9.10;99.90;;;;;;5034424;28;20465;-73
2021/05/31 01:52:51;;;;;;;23.70;15.30;;;9.00;99.90;;;;;;5037199;28;20408;-74
2021/05/31 01:55:18;;;;;;;23.20;16.25;;;8.90;99.90;;;;;;5042028;28;20475;-73
2021/05/31 01:57:47;;;;;;;22.85;16.02;;;8.80;99.90;;;;;;5025711;28;20424;-73
2021/05/31 02:00:17;;;;;;;30.02;18.02;;;8.70;99.90;;;;;;5043544;28;20056;-73
2021/05/31 02:02:48;;;;;;;26.00;16.45;;;8.60;99.90;;;;;;5040376;28;20130;-73
2021/05/31 02:05:15;;;;;;;24.65;15.88;;;8.60;99.90;;;;;;5022051;28;20125;-73
2021/05/31 02:07:42;;;;;;;30.40;18.08;;;8.60;99.90;;;;;;5005314;28;20037;-73
2021/05/31 02:10:12;;;;;;;31.77;16.55;;;8.70;99.90;;;;;;4993317;28;20033;-73
2021/05/31 02:12:50;;;;;;;34.55;19.63;;;8.60;99.90;;;;;;5039595;28;20044;-73
2021/05/31 02:15:26;;;;;;;29.70;17.02;;;8.60;99.90;;;;;;5038314;28;20540;-74
2021/05/31 02:18:15;;;;;;;28.60;18.67;;;8.50;99.90;;;;;;5043221;28;20473;-73
2021/05/31 02:20:44;;;;;;;32.88;17.95;;;8.50;99.90;;;;;;5023317;28;20045;-73
2021/05/31 02:23:13;;;;;;;22.45;15.90;;;8.50;99.90;;;;;;5024220;28;20459;-73
2021/05/31 02:25:41;;;;;;;32.45;17.48;;;8.40;99.90;;;;;;5039773;28;20104;-73
2021/05/31 02:28:08;;;;;;;27.83;17.10;;;8.40;99.90;;;;;;5042744;28;20263;-73
2021/05/31 02:30:35;;;;;;;29.45;18.17;;;8.40;99.90;;;;;;5041252;28;20485;-73
2021/05/31 02:33:04;;;;;;;23.35;17.05;;;8.30;99.90;;;;;;5041758;28;20106;-73
2021/05/31 02:35:35;;;;;;;21.83;15.00;;;8.30;99.90;;;;;;5000889;28;20069;-73
2021/05/31 02:38:03;;;;;;;33.28;15.23;;;8.20;99.90;;;;;;5010926;28;20048;-73
2021/05/31 02:40:30;;;;;;;24.40;15.73;;;8.20;99.90;;;;;;5051089;28;20077;-73
2021/05/31 02:43:06;;;;;;;25.23;16.05;;;8.20;99.90;;;;;;5054457;28;20055;-73
2021/05/31 02:45:33;;;;;;;25.65;16.90;;;8.30;99.90;;;;;;5042156;28;20088;-74
2021/05/31 02:48:00;;;;;;;30.85;19.42;;;8.30;99.90;;;;;;5039182;28;20049;-73
2021/05/31 02:50:28;;;;;;;36.80;18.00;;;8.20;99.90;;;;;;5037978;28;20056;-74
2021/05/31 02:52:56;;;;;;;27.65;18.02;;;8.10;99.90;;;;;;5041806;28;20079;-74
2021/05/31 02:55:27;;;;;;;31.33;18.75;;;8.10;99.90;;;;;;5040866;28;20056;-74
2021/05/31 02:57:54;;;;;;;33.40;18.23;;;8.00;99.90;;;;;;5041154;28;20068;-73
2021/05/31 03:00:24;;;;;;;33.58;18.73;;;8.00;99.90;;;;;;5041341;28;20052;-73
2021/05/31 03:02:51;;;;;;;34.47;17.70;;;7.90;99.90;;;;;;5041398;28;20049;-73
2021/05/31 03:05:20;;;;;;;31.70;18.48;;;7.90;99.90;;;;;;5043567;28;20080;-74
2021/05/31 03:07:47;;;;;;;35.85;20.10;;;7.90;99.90;;;;;;5024056;28;20099;-73
2021/05/31 03:10:15;;;;;;;33.28;18.65;;;7.90;99.90;;;;;;5020364;28;20513;-73
2021/05/31 03:12:43;;;;;;;31.95;19.33;;;7.90;99.90;;;;;;5029407;28;20065;-73
2021/05/31 03:15:12;;;;;;;31.73;19.38;;;8.00;99.90;;;;;;5046687;28;20469;-73
2021/05/31 03:17:39;;;;;;;35.95;18.50;;;8.10;99.90;;;;;;5016517;28;20122;-73
2021/05/31 03:20:07;;;;;;;32.53;16.58;;;8.00;99.90;;;;;;5024369;28;20049;-73
2021/05/31 03:22:34;;;;;;;26.73;16.48;;;7.80;99.90;;;;;;5043331;28;20060;-74
2021/05/31 03:25:03;;;;;;;22.50;15.93;;;7.80;99.90;;;;;;5056876;28;20551;-73
2021/05/31 03:27:29;;;;;;;27.42;16.40;;;7.80;99.90;;;;;;5040598;28;20368;-73
2021/05/31 03:29:56;;;;;;;29.00;17.73;;;7.80;99.90;;;;;;5058667;28;20048;-73
2021/05/31 03:32:27;;;;;;;30.77;17.05;;;7.80;99.90;;;;;;5028251;28;20178;-73
2021/05/31 03:34:53;;;;;;;33.10;16.23;;;7.80;99.90;;;;;;5047894;28;20052;-74
2021/05/31 03:37:20;;;;;;;24.35;15.25;;;7.80;99.90;;;;;;5058682;28;20064;-74
2021/05/31 03:39:47;;;;;;;27.88;16.30;;;7.70;99.90;;;;;;5046761;28;20299;-74
2021/05/31 03:42:14;;;;;;;27.67;15.45;;;7.70;99.90;;;;;;5030446;28;20049;-73
2021/05/31 03:44:41;;;;;;;28.60;15.65;;;7.60;99.90;;;;;;5052684;28;20041;-72
2021/05/31 03:47:08;;;;;;;31.50;17.38;;;7.60;99.90;;;;;;5042810;28;20716;-73
2021/05/31 03:49:35;;;;;;;28.40;16.65;;;7.60;99.90;;;;;;5007752;28;20045;-73
2021/05/31 03:52:02;;;;;;;27.38;16.77;;;7.50;99.90;;;;;;5023416;28;20095;-73
2021/05/31 03:54:29;;;;;;;26.83;16.33;;;7.60;99.90;;;;;;5025986;28;20056;-74
2021/05/31 03:56:56;;;;;;;26.67;16.50;;;7.60;99.90;;;;;;5038313;28;20048;-73
2021/05/31 03:59:23;;;;;;;31.73;16.90;;;7.60;99.90;;;;;;5026644;28;20271;-74
2021/05/31 04:01:51;;;;;;;25.95;15.50;;;7.70;99.90;;;;;;5046472;28;20048;-74
2021/05/31 04:04:20;;;;;;;22.75;15.48;;;7.70;99.90;;;;;;5057156;28;20277;-73
2021/05/31 04:12:01;;;;;;;32.35;18.05;;;7.70;99.90;;;;;;5043865;28;20067;-73
2021/05/31 04:14:28;;;;;;;34.00;19.50;;;7.80;99.90;;;;;;5035482;28;20055;-73
2021/05/31 04:16:55;;;;;;;29.45;16.08;;;7.80;99.90;;;;;;5043189;28;20056;-74
2021/05/31 04:19:24;;;;;;;36.05;16.40;;;7.80;99.90;;;;;;5043553;28;20099;-73
2021/05/31 04:21:53;;;;;;;33.05;17.45;;;7.80;99.90;;;;;;5025742;28;20060;-73
2021/05/31 04:24:20;;;;;;;25.95;16.17;;;7.90;99.90;;;;;;5044285;28;20546;-73
2021/05/31 04:26:47;;;;;;;27.73;17.55;;;7.90;99.90;;;;;;5023901;28;20041;-73
2021/05/31 04:29:15;;;;;;;27.33;16.65;;;7.90;99.90;;;;;;5007946;28;20120;-73
2021/05/31 04:31:43;;;;;;;29.73;16.88;;;8.00;99.90;;;;;;4990600;28;20498;-73
2021/05/31 04:34:11;;;;;;;28.08;15.50;;;8.20;99.90;;;;;;5014921;28;20107;-74
2021/05/31 04:36:43;;;;;;;22.08;15.18;;;8.50;99.90;;;;;;5053579;28;20118;-73
2021/05/31 04:39:10;;;;;;;20.45;14.20;;;9.10;99.90;;;;;;5055422;28;20495;-73
2021/05/31 04:41:38;;;;;;;25.83;15.43;;;9.50;99.90;;;;;;5056525;28;20056;-74
2021/05/31 04:44:05;;;;;;;23.30;15.45;;;10.10;99.90;;;;;;5034145;28;20485;-73
2021/05/31 04:46:32;;;;;;;25.13;17.15;;;10.50;99.90;;;;;;5038267;28;20053;-74
2021/05/31 04:49:03;;;;;;;20.92;17.83;;;10.80;99.90;;;;;;5026346;28;20387;-74
2021/05/31 04:51:31;;;;;;;19.83;17.30;;;11.30;99.90;;;;;;5040718;28;20504;-73
2021/05/31 04:53:59;;;;;;;23.23;18.00;;;11.70;99.90;;;;;;5044497;28;20532;-73
2021/05/31 04:56:26;;;;;;;19.60;17.65;;;12.00;99.90;;;;;;5043447;28;20167;-74
2021/05/31 04:58:53;;;;;;;21.80;18.70;;;12.40;99.90;;;;;;5044551;28;20064;-73
2021/05/31 05:01:20;;;;;;;20.40;18.38;;;12.80;99.90;;;;;;5043996;28;20060;-74
2021/05/31 05:03:47;;;;;;;19.45;17.52;;;13.10;99.90;;;;;;5042826;28;20069;-74
2021/05/31 05:06:14;;;;;;;21.13;18.92;;;13.30;99.90;;;;;;5026462;28;20045;-74
2021/05/31 05:08:41;;;;;;;20.60;18.80;;;13.50;99.90;;;;;;5044643;28;20426;-73
2021/05/31 05:11:07;;;;;;;21.42;19.23;;;13.60;99.90;;;;;;5028805;28;20048;-73
2021/05/31 05:13:34;;;;;;;20.83;18.15;;;13.60;99.90;;;;;;5049745;28;20045;-73
2021/05/31 05:16:01;;;;;;;19.50;17.90;;;14.00;99.90;;;;;;5048537;28;20277;-73
2021/05/31 05:18:28;;;;;;;19.65;17.77;;;14.30;99.90;;;;;;5033008;28;20065;-74
2021/05/31 05:20:54;;;;;;;18.20;16.50;;;14.20;99.90;;;;;;5042601;28;20044;-74
2021/05/31 05:23:21;;;;;;;19.55;17.73;;;14.30;99.90;;;;;;5017520;28;20127;-74
2021/05/31 05:25:53;;;;;;;19.42;17.70;;;14.50;99.90;;;;;;5019404;28;20040;-74
2021/05/31 05:28:20;;;;;;;19.38;17.55;;;14.70;99.90;;;;;;5025087;28;20366;-74
2021/05/31 05:30:50;;;;;;;20.10;18.20;;;15.00;99.90;;;;;;5023382;28;20422;-74
2021/05/31 05:33:17;;;;;;;20.80;18.67;;;15.40;99.90;;;;;;5023734;28;20141;-74
2021/05/31 05:35:50;;;;;;;21.38;19.48;;;15.90;99.90;;;;;;5022911;28;20056;-74
2021/05/31 05:46:24;;;;;;;20.85;18.88;;;16.30;99.90;;;;;;5036999;28;20049;-74
2021/05/31 05:48:54;;;;;;;20.58;18.52;;;16.30;99.90;;;;;;5036289;28;20048;-74
2021/05/31 05:51:21;;;;;;;21.23;18.85;;;16.60;99.90;;;;;;5053276;28;20037;-74
2021/05/31 05:53:48;;;;;;;20.38;18.05;;;16.50;99.90;;;;;;5050266;28;20063;-73
2021/05/31 05:56:20;;;;;;;19.00;16.92;;;16.20;99.90;;;;;;5042935;28;20060;-74
2021/05/31 05:58:48;;;;;;;18.88;17.38;;;15.90;99.90;;;;;;5042749;28;20071;-74
2021/05/31 06:01:15;;;;;;;18.73;17.20;;;15.70;99.90;;;;;;5025026;28;20095;-74
2021/05/31 06:03:42;;;;;;;19.13;17.42;;;15.80;99.90;;;;;;5041517;28;20044;-74
2021/05/31 06:06:09;;;;;;;19.73;17.92;;;16.00;99.90;;;;;;5010059;28;20392;-74
2021/05/31 06:08:36;;;;;;;19.40;17.77;;;16.20;99.90;;;;;;5023862;28;20103;-74
2021/05/31 06:11:04;;;;;;;19.17;17.48;;;16.20;99.90;;;;;;5040109;28;20635;-73
2021/05/31 06:13:32;;;;;;;18.85;17.52;;;16.50;99.90;;;;;;5032825;28;20484;-74
2021/05/31 06:16:00;;;;;;;18.90;17.35;;;17.10;99.90;;;;;;5040601;28;20052;-74
2021/05/31 06:18:29;;;;;;;19.25;17.55;;;17.30;99.90;;;;;;5038220;28;20045;-73
2021/05/31 06:20:56;;;;;;;19.08;17.63;;;17.70;99.90;;;;;;5040274;28;20041;-74
2021/05/31 06:23:24;;;;;;;18.48;16.92;;;18.30;99.90;;;;;;5039086;28;20041;-74
2021/05/31 06:25:51;;;;;;;18.85;17.45;;;18.60;99.90;;;;;;5022426;28;20413;-73
2021/05/31 06:28:18;;;;;;;20.15;18.58;;;18.10;99.90;;;;;;5049139;28;20064;-74
2021/05/31 06:30:45;;;;;;;19.23;17.85;;;18.30;99.90;;;;;;5059665;28;20048;-74
2021/05/31 06:33:13;;;;;;;19.25;17.65;;;18.30;99.90;;;;;;5038177;28;20052;-73
2021/05/31 06:35:40;;;;;;;19.02;17.52;;;18.00;99.90;;;;;;5045701;28;20098;-73
2021/05/31 06:38:07;;;;;;;19.45;17.95;;;17.80;99.90;;;;;;5032178;28;20142;-74
2021/05/31 06:40:34;;;;;;;19.13;17.83;;;17.40;99.90;;;;;;5039121;28;20089;-74
2021/05/31 06:43:01;;;;;;;19.15;17.65;;;17.80;99.90;;;;;;5037246;28;20036;-73
2021/05/31 06:45:29;;;;;;;18.55;17.23;;;17.40;99.90;;;;;;5045459;28;20098;-74
2021/05/31 06:47:58;;;;;;;19.15;17.52;;;17.40;99.90;;;;;;5042950;28;20075;-74
2021/05/31 06:50:28;;;;;;;18.95;17.52;;;17.60;99.90;;;;;;5039834;28;20133;-74
2021/05/31 06:52:55;;;;;;;18.38;16.90;;;18.20;99.90;;;;;;5040874;28;20448;-73
2021/05/31 06:55:24;;;;;;;18.27;16.98;;;18.90;99.90;;;;;;5044758;28;20071;-74
2021/05/31 06:57:51;;;;;;;17.50;16.27;;;19.30;99.90;;;;;;5026720;28;20449;-73
2021/05/31 07:00:22;;;;;;;18.98;17.27;;;19.40;99.90;;;;;;5044387;28;20060;-74
2021/05/31 07:02:49;;;;;;;17.52;16.27;;;18.20;99.90;;;;;;5044387;28;20067;-74
2021/05/31 07:05:16;;;;;;;17.67;16.38;;;17.60;99.90;;;;;;5043321;28;20481;-74
2021/05/31 07:07:43;;;;;;;18.83;17.45;;;17.60;99.90;;;;;;5026478;28;20116;-74
2021/05/31 07:10:13;;;;;;;17.65;16.45;;;18.00;99.90;;;;;;5028052;28;20065;-73
2021/05/31 07:12:40;;;;;;;18.83;17.50;;;18.20;99.90;;;;;;5049485;28;20049;-73
2021/05/31 07:15:11;;;;;;;19.00;17.67;;;18.10;99.90;;;;;;5052207;28;20139;-73
2021/05/31 07:17:37;;;;;;;19.23;17.58;;;18.40;99.90;;;;;;5043083;28;20065;-73
2021/05/31 07:20:11;;;;;;;18.65;16.95;;;18.50;99.90;;;;;;5043912;28;20062;-73
2021/05/31 07:22:38;;;;;;;17.77;16.48;;;18.80;99.90;;;;;;5045711;28;20049;-73
2021/05/31 07:25:09;;;;;;;17.85;16.40;;;18.50;99.90;;;;;;5011795;28;20045;-74
2021/05/31 07:27:36;;;;;;;18.77;17.20;;;18.50;99.90;;;;;;5027252;28;20033;-74
2021/05/31 07:30:05;;;;;;;17.70;16.52;;;19.30;99.90;;;;;;5011960;28;20453;-74
2021/05/31 07:32:32;;;;;;;18.35;16.65;;;19.20;99.90;;;;;;5045154;28;20048;-74
2021/05/31 07:34:59;;;;;;;17.75;16.45;;;19.80;99.90;;;;;;5041870;28;20048;-74
2021/05/31 07:37:25;;;;;;;18.60;17.20;;;19.70;99.90;;;;;;5021919;28;20100;-74
2021/05/31 07:39:52;;;;;;;18.38;16.80;;;19.20;99.90;;;;;;5036582;28;20053;-74
2021/05/31 07:42:19;;;;;;;18.33;17.05;;;19.20;99.90;;;;;;5043636;28;20466;-74
2021/05/31 07:44:46;;;;;;;18.20;17.00;;;19.50;99.90;;;;;;5054891;28;20045;-74
2021/05/31 07:47:13;;;;;;;17.15;15.85;;;19.20;99.90;;;;;;5027307;28;20071;-74
2021/05/31 07:49:39;;;;;;;16.17;15.00;;;19.50;99.90;;;;;;5046175;28;20057;-73
2021/05/31 07:52:09;;;;;;;16.80;15.57;;;19.30;99.90;;;;;;5044332;28;20049;-74
2021/05/31 07:54:36;;;;;;;16.38;14.98;;;19.50;99.90;;;;;;5045573;28;20053;-75
2021/05/31 07:57:04;;;;;;;16.95;15.65;;;19.40;99.90;;;;;;5041786;28;20135;-75
2021/05/31 07:59:30;;;;;;;15.60;14.50;;;19.20;99.90;;;;;;5024782;28;20057;-75
2021/05/31 08:01:57;;;;;;;16.77;15.45;;;19.30;99.90;;;;;;5024411;28;20107;-75
2021/05/31 08:04:24;;;;;;;16.65;15.30;;;19.20;99.90;;;;;;5024811;28;20312;-75
2021/05/31 08:06:51;;;;;;;16.17;15.00;;;18.90;99.90;;;;;;5035173;28;20048;-74
2021/05/31 08:09:17;;;;;;;17.08;15.50;;;18.90;99.90;;;;;;5025532;28;20069;-74
2021/05/31 08:11:44;;;;;;;16.63;15.20;;;18.90;99.90;;;;;;5042062;28;20056;-74
2021/05/31 08:14:11;;;;;;;16.33;15.10;;;19.10;99.90;;;;;;5040905;28;20062;-75
2021/05/31 08:16:38;;;;;;;17.25;15.85;;;19.20;99.90;;;;;;5053302;28;20040;-75
2021/05/31 08:19:05;;;;;;;17.23;16.13;;;19.70;99.90;;;;;;5050497;28;20416;-74
2021/05/31 08:21:32;;;;;;;17.02;15.70;;;19.60;99.90;;;;;;5025909;28;20053;-74
2021/05/31 08:23:58;;;;;;;17.77;16.52;;;19.50;99.90;;;;;;5046762;28;20045;-73
2021/05/31 08:26:25;;;;;;;15.93;14.95;;;19.30;99.90;;;;;;5027842;28;20069;-74
2021/05/31 08:28:52;;;;;;;15.88;14.85;;;19.40;99.90;;;;;;5019527;28;20164;-74
2021/05/31 08:31:19;;;;;;;16.05;14.95;;;19.60;99.90;;;;;;5023910;28;20053;-74
2021/05/31 08:33:47;;;;;;;16.00;14.77;;;19.60;99.90;;;;;;5024733;28;20068;-75
2021/05/31 08:36:14;;;;;;;15.60;14.52;;;19.90;99.90;;;;;;5023776;28;20162;-74
2021/05/31 08:38:41;;;;;;;16.63;15.38;;;19.60;99.90;;;;;;5016874;28;20064;-74
2021/05/31 08:41:08;;;;;;;16.25;15.15;;;19.30;99.90;;;;;;5040509;28;20060;-74
2021/05/31 08:43:35;;;;;;;18.05;16.77;;;19.30;99.90;;;;;;5056481;28;20041;-74
2021/05/31 08:46:02;;;;;;;17.02;15.93;;;20.20;99.90;;;;;;5041278;28;20076;-74
2021/05/31 08:48:29;;;;;;;17.77;16.40;;;20.40;99.90;;;;;;5039823;28;20576;-74
2021/05/31 08:50:56;;;;;;;18.02;16.70;;;20.60;99.90;;;;;;5034614;28;20041;-75
2021/05/31 08:53:23;;;;;;;17.25;15.95;;;20.90;99.90;;;;;;5042441;28;20057;-75
2021/05/31 08:55:50;;;;;;;17.23;15.75;;;20.20;99.90;;;;;;5041880;28;20159;-74
2021/05/31 08:58:18;;;;;;;18.10;16.65;;;20.80;99.90;;;;;;5027139;28;20057;-75
2021/05/31 09:00:45;;;;;;;16.45;15.45;;;20.50;99.90;;;;;;5040745;28;20044;-75
2021/05/31 09:03:12;;;;;;;17.65;16.17;;;20.80;99.90;;;;;;5043445;28;20041;-73
2021/05/31 09:05:41;;;;;;;17.23;15.73;;;20.40;99.90;;;;;;5026098;28;20061;-73
2021/05/31 09:08:26;;;;;;;17.33;16.20;;;19.50;99.90;;;;;;5036190;28;20457;-73
2021/05/31 09:11:02;;;;;;;18.08;16.88;;;19.20;99.90;;;;;;5022822;28;20411;-75
2021/05/31 09:13:31;;;;;;;17.67;16.33;;;19.20;99.90;;;;;;5040302;28;20055;-75
2021/05/31 09:16:04;;;;;;;16.92;15.73;;;19.00;99.90;;;;;;5038754;28;20051;-74
2021/05/31 09:18:31;;;;;;;17.58;16.25;;;18.60;99.90;;;;;;5034130;28;20053;-74
2021/05/31 09:21:09;;;;;;;16.58;15.38;;;18.30;99.90;;;;;;5022043;28;20064;-75
2021/05/31 09:23:36;;;;;;;16.38;15.23;;;18.30;99.90;;;;;;5039469;28;20436;-74
2021/05/31 09:26:05;;;;;;;15.88;14.88;;;18.50;99.90;;;;;;5040461;28;20420;-74
2021/05/31 09:28:32;;;;;;;16.50;15.20;;;18.30;99.90;;;;;;5022641;28;20099;-75
2021/05/31 09:30:59;;;;;;;16.08;14.98;;;18.10;99.90;;;;;;5047244;28;20059;-74
2021/05/31 09:33:26;;;;;;;16.92;15.93;;;18.80;99.90;;;;;;5031292;28;20052;-73
2021/05/31 09:35:53;;;;;;;15.55;14.55;;;18.70;99.90;;;;;;5044646;28;20045;-74
2021/05/31 09:38:20;;;;;;;15.82;14.82;;;18.90;99.90;;;;;;5037232;28;20088;-74
2021/05/31 09:40:55;;;;;;;16.23;15.15;;;19.00;99.90;;;;;;5035445;28;20697;-73
2021/05/31 09:43:25;;;;;;;;;;;19.40;99.90;;;;;;5057080;28;20060;-75
2021/05/31 09:45:51;;;;;;;15.85;14.57;;;19.90;99.90;;;;;;5025604;28;19928;-73
2021/05/31 09:48:18;;;;;;;15.85;14.75;;;20.00;99.90;;;;;;5029863;28;20068;-75
2021/05/31 09:50:58;;;;;;;14.77;13.98;;;20.60;99.90;;;;;;5023750;28;20087;-72
2021/05/31 09:53:35;;;;;;;15.55;14.50;;;21.20;99.90;;;;;;5031595;28;20215;-74
2021/05/31 09:56:13;;;;;;;15.52;14.38;;;20.70;99.90;;;;;;5009002;28;20073;-73
2021/05/31 09:58:50;;;;;;;15.70;14.38;;;21.10;99.90;;;;;;5003339;28;20053;-73
2021/05/31 10:01:33;;;;;;;15.70;14.70;;;20.00;99.90;;;;;;5039444;28;20045;-74
2021/05/31 10:04:16;;;;;;;16.00;15.00;;;20.10;99.90;;;;;;5036823;28;20041;-72
2021/05/31 10:06:51;;;;;;;14.98;14.10;;;20.30;99.90;;;;;;5042092;28;20041;-74
2021/05/31 10:09:18;;;;;;;15.00;13.90;;;20.50;99.90;;;;;;5046253;28;20481;-73
2021/05/31 10:11:45;;;;;;;14.55;13.65;;;20.50;99.90;;;;;;5041737;28;20061;-73
2021/05/31 10:14:14;;;;;;;15.52;14.65;;;20.50;99.90;;;;;;5049947;28;20147;-74
2021/05/31 10:16:43;;;;;;;16.63;15.40;;;20.60;99.90;;;;;;5042040;28;20512;-73
2021/05/31 10:19:10;;;;;;;14.90;14.05;;;20.50;99.90;;;;;;5041252;28;20126;-72
2021/05/31 10:21:37;;;;;;;15.10;14.18;;;21.00;99.10;;;;;;5040577;28;20049;-74
2021/05/31 10:24:04;;;;;;;15.77;14.75;;;21.00;99.90;;;;;;5024547;28;20045;-73
2021/05/31 10:26:33;;;;;;;15.48;14.30;;;21.20;99.90;;;;;;5021593;28;20044;-73
2021/05/31 10:29:00;;;;;;;15.63;14.73;;;20.90;99.50;;;;;;5033700;28;20033;-73
2021/05/31 10:31:27;;;;;;;15.60;14.27;;;20.40;99.90;;;;;;5041025;28;20037;-73
2021/05/31 10:33:59;;;;;;;15.52;14.50;;;20.30;98.60;;;;;;5042588;28;20244;-73
2021/05/31 10:36:32;;;;;;;14.40;13.60;;;20.30;96.50;;;;;;5037763;28;20044;-73
2021/05/31 10:39:04;;;;;;;15.07;14.18;;;21.10;98.30;;;;;;5050682;28;20049;-72
2021/05/31 10:41:32;;;;;;;15.43;14.35;;;21.60;95.70;;;;;;5041618;28;20527;-73
2021/05/31 10:43:59;;;;;;;14.90;14.00;;;22.00;94.70;;;;;;5050003;28;20040;-71
2021/05/31 10:46:29;;;;;;;15.30;14.20;;;21.50;95.90;;;;;;5043193;28;20527;-73
2021/05/31 10:48:57;;;;;;;14.43;13.63;;;20.80;97.00;;;;;;5019584;28;20060;-72
2021/05/31 10:51:31;;;;;;;15.45;14.30;;;21.00;97.40;;;;;;5021426;28;20041;-73
2021/05/31 10:54:16;;;;;;;14.35;13.65;;;21.30;94.70;;;;;;5021719;28;20061;-73
2021/05/31 10:56:45;;;;;;;13.18;12.18;;;21.30;92.50;;;;;;5021332;28;20053;-74
2021/05/31 10:59:19;;;;;;;14.13;13.23;;;21.50;92.70;;;;;;5039644;28;20056;-74
2021/05/31 11:01:46;;;;;;;12.98;12.27;;;21.90;92.60;;;;;;5041580;28;20057;-73
2021/05/31 11:04:19;;;;;;;13.60;12.85;;;21.20;90.60;;;;;;5023355;28;20040;-74
2021/05/31 11:06:47;;;;;;;13.13;12.52;;;20.50;89.90;;;;;;5025096;28;20049;-72
2021/05/31 11:09:19;;;;;;;14.32;13.63;;;20.50;90.10;;;;;;5043179;28;20049;-73
2021/05/31 11:11:51;;;;;;;14.63;13.80;;;20.80;84.70;;;;;;5041899;28;20049;-72
2021/05/31 11:14:46;;;;;;;12.63;11.82;;;20.60;91.40;;;;;;5055436;28;20060;-73
2021/05/31 11:17:17;;;;;;;14.02;12.90;;;21.10;90.70;;;;;;5042205;28;20044;-73
2021/05/31 11:19:47;;;;;;;13.50;12.70;;;21.80;92.00;;;;;;5041261;28;20057;-72
2021/05/31 11:22:26;;;;;;;13.63;12.93;;;22.40;90.40;;;;;;5041638;28;20068;-73
2021/05/31 11:24:54;;;;;;;14.57;13.63;;;22.60;90.50;;;;;;5041900;28;20056;-73
2021/05/31 11:27:35;;;;;;;13.23;12.35;;;22.20;90.10;;;;;;5042470;28;20111;-74
2021/05/31 11:30:06;;;;;;;14.23;13.02;;;21.50;87.60;;;;;;5039965;28;20083;-72
2021/05/31 11:32:34;;;;;;;13.85;13.10;;;21.50;91.30;;;;;;5032433;28;20056;-74
2021/05/31 11:35:08;;;;;;;13.90;13.00;;;22.00;90.10;;;;;;5021761;28;20516;-73
2021/05/31 11:37:56;;;;;;;14.23;13.27;;;22.20;89.40;;;;;;4995902;28;20539;-73
2021/05/31 11:40:26;;;;;;;14.85;13.82;;;22.10;89.70;;;;;;5049292;28;20056;-73
2021/05/31 11:43:01;;;;;;;13.32;12.75;;;22.40;90.60;;;;;;5059175;28;20053;-73
2021/05/31 11:45:33;;;;;;;14.27;13.48;;;21.80;79.90;;;;;;5042579;28;21620;-73
2021/05/31 11:48:09;;;;;;;14.13;13.32;;;21.40;83.40;;;;;;5040100;28;20505;-72
2021/05/31 11:50:40;;;;;;;13.32;12.63;;;21.90;83.00;;;;;;5042096;28;20052;-73
2021/05/31 11:53:12;;;;;;;12.57;11.88;;;21.70;77.60;;;;;;5039707;28;20462;-72
2021/05/31 11:55:41;;;;;;;12.95;12.45;;;20.90;72.20;;;;;;5043556;28;20053;-73
2021/05/31 11:58:08;;;;;;;12.32;11.68;;;21.10;77.30;;;;;;5027142;28;20570;-72
2021/05/31 12:00:38;;;;;;;13.30;12.40;;;21.70;73.00;;;;;;5046764;28;20056;-73
2021/05/31 12:03:05;;;;;;;13.63;12.82;;;22.20;79.80;;;;;;5044059;28;20439;-73
2021/05/31 12:05:38;;;;;;;13.45;12.75;;;22.50;79.80;;;;;;5027250;28;20401;-72
2021/05/31 12:08:10;;;;;;;13.65;12.73;;;22.20;81.70;;;;;;5045321;28;20057;-72
2021/05/31 12:10:38;;;;;;;14.05;13.15;;;22.40;82.00;;;;;;5043682;28;20053;-71
2021/05/31 12:13:05;;;;;;;14.25;13.55;;;22.40;83.10;;;;;;5031673;28;20053;-73
2021/05/31 12:15:34;;;;;;;14.40;13.70;;;22.30;79.10;;;;;;5047802;28;20057;-73
2021/05/31 12:18:12;;;;;;;13.65;12.95;;;21.40;76.00;;;;;;5024860;28;20281;-72
2021/05/31 12:20:40;;;;;;;14.60;13.73;;;21.50;80.80;;;;;;5022810;28;20107;-74
2021/05/31 12:23:21;;;;;;;14.35;13.50;;;21.30;80.10;;;;;;5040996;28;20053;-74
2021/05/31 12:25:49;;;;;;;13.68;13.00;;;22.10;78.10;;;;;;5046121;28;20131;-72
2021/05/31 12:28:18;;;;;;;13.60;12.90;;;22.40;73.20;;;;;;5010674;28;20056;-73
2021/05/31 12:30:50;;;;;;;13.50;12.80;;;22.10;74.70;;;;;;5026845;28;20587;-74
2021/05/31 12:33:17;;;;;;;13.02;12.52;;;21.40;76.40;;;;;;5043390;28;20052;-73
2021/05/31 12:35:46;;;;;;;13.57;12.82;;;21.70;79.10;;;;;;5042815;28;20147;-73
2021/05/31 12:38:13;;;;;;;13.85;12.85;;;21.50;70.60;;;;;;5023648;28;20057;-72
2021/05/31 12:40:40;;;;;;;15.10;13.10;;;21.80;76.80;;;;;;5041538;28;20071;-73
2021/05/31 12:43:08;;;;;;;13.68;12.88;;;21.80;76.40;;;;;;5041175;28;20143;-74
2021/05/31 12:45:49;;;;;;;13.18;12.48;;;21.60;75.20;;;;;;5045787;28;20048;-72
2021/05/31 12:48:21;;;;;;;13.45;12.65;;;21.40;75.80;;;;;;5026960;28;20516;-73
2021/05/31 12:50:54;;;;;;;13.02;12.32;;;21.60;77.00;;;;;;5043456;28;20268;-73
2021/05/31 12:53:22;;;;;;;12.95;12.25;;;21.50;77.60;;;;;;5042203;28;20049;-73